Springdale, Pennsylvania
Current Conditions -  °F | °C
As of 3:53 AM on Wednesday 28 Jan 2015 (Local Time) from KAGC Reporting Station
Clear Clear  
Wind Chill:   Ceiling: Unl
Heat Index: 12°   Visibility: 10mi
Dew Point:   Wind: 8mph
Humidity: 80%   Direction: 280°W
Pressure: 30.17"   Gusts: NA
Location:  40.54°N, 79.78°W
Report Text: KAGC 280853Z AUTO 28007KT 10SM CLR M11/M14 A3017 RMK AO2 SLP245 60000 T11111139 53018 TSNO
Loading
Personal Weather Stations






























Interactive Weather Map New forecast layout! Learn more

10-Day Weather Forecast

Advertisements
Track Severe Weather on mobile